createdAt,value
2017-01-31T00:00:07.235Z,5.46
2017-01-31T00:01:07.783Z,5.57
2017-01-31T00:02:07.346Z,5.52
2017-01-31T00:03:08.027Z,5.37
2017-01-31T00:04:07.790Z,5.44
2017-01-31T00:05:07.357Z,5.50
2017-01-31T00:06:07.899Z,5.48
2017-01-31T00:07:07.456Z,5.41
2017-01-31T00:08:08.050Z,5.50
2017-01-31T00:09:07.632Z,5.55
2017-01-31T00:10:07.209Z,5.46
2017-01-31T00:11:07.789Z,5.49
2017-01-31T00:12:07.565Z,5.49
2017-01-31T00:13:08.206Z,5.54
2017-01-31T00:14:07.780Z,5.48
2017-01-31T00:15:07.569Z,5.44
2017-01-31T00:16:08.230Z,5.40
2017-01-31T00:17:08.117Z,5.50
2017-01-31T00:18:07.692Z,5.52
2017-01-31T00:19:07.299Z,5.48
2017-01-31T00:20:07.904Z,5.39
2017-01-31T00:21:07.507Z,5.44
2017-01-31T00:22:08.136Z,5.46
2017-01-31T00:23:07.746Z,5.48
2017-01-31T00:24:07.362Z,5.47
2017-01-31T00:25:08.172Z,5.47
2017-01-31T00:26:07.848Z,5.45
2017-01-31T00:27:07.377Z,5.46
2017-01-31T00:28:08.012Z,5.42
2017-01-31T00:29:07.676Z,5.36
2017-01-31T00:30:07.231Z,5.41
2017-01-31T00:31:07.807Z,5.38
2017-01-31T00:32:07.385Z,5.35
2017-01-31T00:33:07.907Z,5.27
2017-01-31T00:34:07.544Z,5.33
2017-01-31T00:35:08.098Z,5.33
2017-01-31T00:36:07.661Z,5.39
2017-01-31T00:37:07.214Z,5.32
2017-01-31T00:38:07.817Z,5.40
2017-01-31T00:39:07.404Z,5.36
2017-01-31T00:40:08.085Z,5.34
2017-01-31T00:41:07.644Z,5.35
2017-01-31T00:42:07.460Z,5.41
2017-01-31T00:43:07.803Z,5.44
2017-01-31T00:44:07.350Z,5.41
2017-01-31T00:45:07.914Z,5.43
2017-01-31T00:46:07.404Z,5.35
2017-01-31T00:47:16.356Z,5.42
2017-01-31T00:48:07.914Z,5.45
2017-01-31T00:49:07.486Z,5.35
2017-01-31T00:50:08.152Z,5.41
2017-01-31T00:51:07.752Z,5.47
2017-01-31T00:52:07.237Z,5.53
2017-01-31T00:53:07.812Z,5.53
2017-01-31T00:54:07.397Z,5.51
2017-01-31T00:55:07.862Z,5.50
2017-01-31T00:56:07.477Z,5.52
2017-01-31T00:57:08.062Z,5.51
2017-01-31T00:58:07.588Z,5.38
2017-01-31T00:59:07.153Z,5.43
2017-01-31T01:00:07.881Z,5.41
2017-01-31T01:01:07.381Z,5.43
2017-01-31T01:02:07.923Z,5.49
2017-01-31T01:03:07.518Z,5.48
2017-01-31T01:04:15.559Z,5.47
2017-01-31T01:05:07.335Z,5.49
2017-01-31T01:06:08.091Z,5.44
2017-01-31T01:07:07.562Z,5.46
2017-01-31T01:08:08.054Z,5.52
2017-01-31T01:09:08.351Z,5.51
2017-01-31T01:10:07.901Z,5.54
2017-01-31T01:11:07.392Z,5.56
2017-01-31T01:12:08.175Z,5.57
2017-01-31T01:13:07.705Z,5.57
2017-01-31T01:14:08.171Z,5.57
2017-01-31T01:15:07.719Z,5.46
2017-01-31T01:16:07.296Z,5.47
2017-01-31T01:17:08.129Z,5.46
2017-01-31T01:18:07.724Z,5.49
2017-01-31T01:19:07.341Z,5.52
2017-01-31T01:20:08.184Z,5.59
2017-01-31T01:21:07.665Z,5.62
2017-01-31T01:22:07.161Z,5.65
2017-01-31T01:23:07.740Z,5.72
2017-01-31T01:24:07.369Z,5.74
2017-01-31T01:25:07.861Z,5.75
2017-01-31T01:26:07.470Z,5.62
2017-01-31T01:27:08.033Z,5.67
2017-01-31T01:28:07.593Z,5.71
2017-01-31T01:29:07.039Z,5.70
2017-01-31T01:30:08.305Z,5.75
2017-01-31T01:31:07.816Z,5.78
2017-01-31T01:32:07.393Z,5.79
2017-01-31T01:33:08.162Z,5.82
2017-01-31T01:34:07.642Z,5.82
2017-01-31T01:35:07.138Z,5.77
2017-01-31T01:36:07.783Z,5.82
2017-01-31T01:37:08.230Z,5.80
2017-01-31T01:38:07.814Z,5.81
2017-01-31T01:39:07.359Z,5.77
2017-01-31T01:40:08.031Z,5.80
2017-01-31T01:41:07.620Z,5.84
2017-01-31T01:42:07.184Z,5.84
2017-01-31T01:43:07.709Z,5.89
2017-01-31T01:44:07.296Z,5.89
2017-01-31T01:45:07.919Z,5.89
2017-01-31T01:46:07.580Z,5.93
2017-01-31T01:47:07.216Z,5.96
2017-01-31T01:48:07.729Z,5.98
2017-01-31T01:49:07.222Z,6.00
2017-01-31T01:50:07.760Z,5.88
2017-01-31T01:51:07.384Z,5.97
2017-01-31T01:52:08.041Z,5.95
2017-01-31T01:53:07.578Z,5.98
2017-01-31T01:54:08.137Z,5.94
2017-01-31T01:55:07.686Z,5.97
2017-01-31T01:56:07.488Z,5.97
2017-01-31T01:57:07.982Z,6.00
2017-01-31T01:58:07.577Z,6.08
2017-01-31T01:59:07.184Z,5.95
2017-01-31T02:00:07.713Z,5.94
2017-01-31T02:01:07.207Z,6.02
2017-01-31T02:02:07.713Z,6.10
2017-01-31T02:03:07.213Z,5.96
2017-01-31T02:04:08.445Z,5.95
2017-01-31T02:05:08.003Z,6.00
2017-01-31T02:06:07.619Z,6.07
2017-01-31T02:07:07.135Z,6.12
2017-01-31T02:08:07.693Z,6.02
2017-01-31T02:09:07.362Z,6.04
2017-01-31T02:10:07.889Z,6.09
2017-01-31T02:11:07.724Z,6.05
2017-01-31T02:12:07.284Z,6.12
2017-01-31T02:13:07.819Z,6.09
2017-01-31T02:14:07.379Z,6.07
2017-01-31T02:15:08.034Z,6.10
2017-01-31T02:16:07.671Z,6.11
2017-01-31T02:17:07.419Z,6.04
2017-01-31T02:18:07.920Z,6.05
2017-01-31T02:19:07.430Z,6.01
2017-01-31T02:20:07.949Z,6.07
2017-01-31T02:21:07.485Z,6.10
2017-01-31T02:22:08.065Z,6.05
2017-01-31T02:23:07.581Z,6.11
2017-01-31T02:24:07.362Z,6.04
2017-01-31T02:25:07.957Z,6.05
2017-01-31T02:26:07.507Z,6.14
2017-01-31T02:27:08.097Z,6.08
2017-01-31T02:28:07.598Z,6.10
2017-01-31T02:29:07.134Z,6.16
2017-01-31T02:30:07.710Z,6.16
2017-01-31T02:31:07.238Z,6.16
2017-01-31T02:32:08.038Z,6.15
2017-01-31T02:33:07.524Z,6.10
2017-01-31T02:34:08.060Z,6.09
2017-01-31T02:35:07.522Z,6.08
2017-01-31T02:36:08.399Z,6.01
2017-01-31T02:37:07.850Z,6.04
2017-01-31T02:38:07.498Z,5.93
2017-01-31T02:39:07.968Z,5.93
2017-01-31T02:40:07.760Z,5.93
2017-01-31T02:41:07.375Z,5.94
2017-01-31T02:42:08.022Z,5.97
2017-01-31T02:43:07.594Z,5.89
2017-01-31T02:44:07.155Z,5.95
2017-01-31T02:45:07.501Z,5.90
2017-01-31T02:46:08.036Z,5.93
2017-01-31T02:47:07.579Z,5.91
2017-01-31T02:48:07.162Z,5.91
2017-01-31T02:49:07.830Z,5.92
2017-01-31T02:50:07.418Z,5.96
2017-01-31T02:51:07.938Z,5.98
2017-01-31T02:52:07.450Z,5.95
2017-01-31T02:53:08.077Z,6.01
2017-01-31T02:54:07.564Z,6.01
2017-01-31T02:55:07.072Z,6.00
2017-01-31T02:56:07.746Z,6.03
2017-01-31T02:57:07.279Z,6.06
2017-01-31T02:58:07.871Z,6.04
2017-01-31T02:59:07.382Z,6.11
2017-01-31T03:00:07.933Z,6.12
2017-01-31T03:01:07.697Z,6.08
2017-01-31T03:02:07.317Z,6.06
2017-01-31T03:03:07.819Z,6.09
2017-01-31T03:04:07.423Z,6.10
2017-01-31T03:05:07.909Z,6.14
2017-01-31T03:06:07.447Z,6.08
2017-01-31T03:07:08.068Z,6.08
2017-01-31T03:08:07.553Z,6.14
2017-01-31T03:09:08.387Z,6.08
2017-01-31T03:10:07.882Z,6.19
2017-01-31T03:11:07.471Z,6.24
2017-01-31T03:12:08.369Z,6.25
2017-01-31T03:13:07.893Z,6.23
2017-01-31T03:14:07.468Z,6.25
2017-01-31T03:15:08.243Z,6.21
2017-01-31T03:16:07.750Z,6.23
2017-01-31T03:17:07.350Z,6.18
2017-01-31T03:18:07.862Z,6.18
2017-01-31T03:19:07.633Z,6.18
2017-01-31T03:20:07.123Z,6.21
2017-01-31T03:21:07.640Z,6.27
2017-01-31T03:22:07.114Z,6.21
2017-01-31T03:23:07.708Z,6.21
2017-01-31T03:24:07.242Z,6.21
2017-01-31T03:25:08.182Z,6.24
2017-01-31T03:26:07.689Z,6.15
2017-01-31T03:27:07.334Z,6.19
2017-01-31T03:28:07.937Z,6.06
2017-01-31T03:29:07.491Z,6.06
2017-01-31T03:30:08.036Z,6.13
2017-01-31T03:31:07.608Z,6.24
2017-01-31T03:32:07.173Z,6.25
2017-01-31T03:33:07.750Z,6.27
2017-01-31T03:34:07.311Z,6.32
2017-01-31T03:35:07.835Z,6.34
2017-01-31T03:36:07.436Z,6.36
2017-01-31T03:37:07.929Z,6.39
2017-01-31T03:38:07.655Z,6.37
2017-01-31T03:39:07.144Z,6.40
2017-01-31T03:40:07.760Z,6.36
2017-01-31T03:41:07.420Z,6.37
2017-01-31T03:42:07.973Z,6.33
2017-01-31T03:43:07.529Z,6.35
2017-01-31T03:44:08.190Z,6.27
2017-01-31T03:45:07.957Z,6.15
2017-01-31T03:46:07.546Z,6.20
2017-01-31T03:47:08.028Z,6.25
2017-01-31T03:48:07.824Z,6.23
2017-01-31T03:49:07.523Z,6.13
2017-01-31T03:50:08.051Z,6.19
2017-01-31T03:51:07.593Z,6.22
2017-01-31T03:52:07.176Z,6.18
2017-01-31T03:53:07.979Z,6.22
2017-01-31T03:54:07.460Z,6.25
2017-01-31T03:55:07.963Z,6.12
2017-01-31T03:56:07.601Z,6.11
2017-01-31T03:57:07.149Z,6.18
2017-01-31T03:58:07.728Z,6.14
2017-01-31T03:59:07.262Z,6.16
2017-01-31T04:00:07.801Z,6.15
2017-01-31T04:01:07.298Z,6.09
2017-01-31T04:02:07.814Z,6.15
2017-01-31T04:03:07.347Z,6.10
2017-01-31T04:04:08.067Z,6.11
2017-01-31T04:05:07.618Z,6.05
2017-01-31T04:06:07.074Z,6.10
2017-01-31T04:07:08.059Z,6.12
2017-01-31T04:08:07.681Z,6.03
2017-01-31T04:09:07.245Z,6.05
2017-01-31T04:10:07.732Z,6.09
2017-01-31T04:11:07.354Z,6.05
2017-01-31T04:12:07.881Z,6.10
2017-01-31T04:13:07.436Z,6.12
2017-01-31T04:14:08.035Z,6.08
2017-01-31T04:15:07.593Z,6.06
2017-01-31T04:16:07.084Z,6.12
2017-01-31T04:17:07.714Z,6.10
2017-01-31T04:18:07.242Z,6.14
2017-01-31T04:19:07.715Z,6.07
2017-01-31T04:20:07.429Z,5.95
2017-01-31T04:21:07.946Z,5.98
2017-01-31T04:22:08.053Z,6.02
2017-01-31T04:23:07.597Z,6.02
2017-01-31T04:24:07.153Z,6.03
2017-01-31T04:25:07.844Z,6.00
2017-01-31T04:26:07.445Z,5.99
2017-01-31T04:27:08.034Z,6.00
2017-01-31T04:28:07.650Z,6.00
2017-01-31T04:29:07.154Z,6.00
2017-01-31T04:30:07.649Z,6.00
2017-01-31T04:31:07.253Z,5.94
2017-01-31T04:32:07.661Z,5.91
2017-01-31T04:33:07.554Z,5.94
2017-01-31T04:34:08.142Z,5.98
2017-01-31T04:35:07.618Z,5.91
2017-01-31T04:36:07.109Z,5.85
2017-01-31T04:37:07.753Z,5.92
2017-01-31T04:38:07.375Z,5.69
2017-01-31T04:39:07.888Z,5.74
2017-01-31T04:40:07.462Z,5.72
2017-01-31T04:41:08.505Z,5.86
2017-01-31T04:42:08.100Z,5.92
2017-01-31T04:43:07.773Z,5.95
2017-01-31T04:44:07.458Z,5.92
2017-01-31T04:45:08.060Z,5.94
2017-01-31T04:46:07.500Z,6.04
2017-01-31T04:47:07.972Z,6.07
2017-01-31T04:48:07.559Z,6.11
2017-01-31T04:49:08.058Z,6.08
2017-01-31T04:50:07.553Z,6.10
2017-01-31T04:51:08.205Z,6.11
2017-01-31T04:52:07.753Z,6.11
2017-01-31T04:53:07.267Z,6.12
2017-01-31T04:54:08.174Z,6.08
2017-01-31T04:55:07.640Z,6.15
2017-01-31T04:56:07.261Z,6.21
2017-01-31T04:57:07.878Z,6.20
2017-01-31T04:58:07.400Z,6.19
2017-01-31T04:59:07.909Z,6.23
2017-01-31T05:00:08.002Z,6.22
2017-01-31T05:01:07.742Z,6.27
2017-01-31T05:02:07.201Z,6.28
2017-01-31T05:03:07.697Z,6.26
2017-01-31T05:04:07.481Z,6.29
2017-01-31T05:05:08.032Z,6.28
2017-01-31T05:06:07.528Z,6.28
2017-01-31T05:07:08.045Z,6.31
2017-01-31T05:08:07.660Z,6.29
2017-01-31T05:09:07.210Z,6.25
2017-01-31T05:10:07.931Z,6.29
2017-01-31T05:11:07.466Z,6.34
2017-01-31T05:12:08.022Z,6.35
2017-01-31T05:13:07.733Z,6.35
2017-01-31T05:14:07.523Z,6.39
2017-01-31T05:15:08.486Z,6.40
2017-01-31T05:16:07.983Z,6.39
2017-01-31T05:17:07.673Z,6.41
2017-01-31T05:18:07.240Z,6.39
2017-01-31T05:19:07.804Z,6.35
2017-01-31T05:20:07.629Z,6.44
2017-01-31T05:21:07.122Z,6.43
2017-01-31T05:22:07.765Z,6.39
2017-01-31T05:23:07.363Z,6.40
2017-01-31T05:24:07.931Z,6.41
2017-01-31T05:25:10.256Z,6.41
2017-01-31T05:26:08.051Z,6.44
2017-01-31T05:27:07.597Z,6.48
2017-01-31T05:28:07.213Z,6.44
2017-01-31T05:29:07.829Z,6.49
2017-01-31T05:30:07.375Z,6.44
2017-01-31T05:31:07.881Z,6.50
2017-01-31T05:32:07.393Z,6.55
2017-01-31T05:33:07.966Z,6.54
2017-01-31T05:34:07.490Z,6.52
2017-01-31T05:35:08.189Z,6.56
2017-01-31T05:36:07.721Z,6.49
2017-01-31T05:37:07.204Z,6.51
2017-01-31T05:38:07.774Z,6.55
2017-01-31T05:39:07.399Z,6.56
2017-01-31T05:40:07.958Z,6.50
2017-01-31T05:41:07.521Z,6.53
2017-01-31T05:42:08.203Z,6.53
2017-01-31T05:43:07.821Z,6.55
2017-01-31T05:44:07.376Z,6.54
2017-01-31T05:45:07.873Z,6.59
2017-01-31T05:46:07.371Z,6.64
2017-01-31T05:47:07.895Z,6.65
2017-01-31T05:48:07.781Z,6.66
2017-01-31T05:49:07.568Z,6.62
2017-01-31T05:50:07.084Z,6.63
2017-01-31T05:51:07.616Z,6.65
2017-01-31T05:52:07.192Z,6.61
2017-01-31T05:53:07.700Z,6.66
2017-01-31T05:54:07.259Z,6.67
2017-01-31T05:55:07.840Z,6.61
2017-01-31T05:56:07.321Z,6.61
2017-01-31T05:57:07.971Z,6.62
2017-01-31T05:58:07.789Z,6.60
2017-01-31T05:59:07.276Z,6.52
2017-01-31T06:00:08.229Z,6.61
2017-01-31T06:01:07.946Z,6.63
2017-01-31T06:02:07.617Z,6.61
2017-01-31T06:03:07.233Z,6.53
2017-01-31T06:04:08.649Z,6.59
2017-01-31T06:05:07.210Z,6.60
2017-01-31T06:06:07.731Z,6.53
2017-01-31T06:07:07.302Z,6.56
2017-01-31T06:08:07.882Z,6.58
2017-01-31T06:09:07.444Z,6.58
2017-01-31T06:10:07.246Z,6.54
2017-01-31T06:11:07.826Z,6.51
2017-01-31T06:12:07.369Z,6.51
2017-01-31T06:13:07.989Z,6.58
2017-01-31T06:14:07.433Z,6.57
2017-01-31T06:15:07.377Z,6.60
2017-01-31T06:16:07.883Z,6.60
2017-01-31T06:17:07.624Z,6.57
2017-01-31T06:18:07.118Z,6.61
2017-01-31T06:19:07.630Z,6.55
2017-01-31T06:20:07.292Z,6.63
2017-01-31T06:21:07.840Z,6.61
2017-01-31T06:22:07.411Z,6.62
2017-01-31T06:23:07.543Z,6.53
2017-01-31T06:24:08.067Z,6.54
2017-01-31T06:25:07.673Z,6.62
2017-01-31T06:26:07.205Z,6.61
2017-01-31T06:27:07.789Z,6.63
2017-01-31T06:28:07.421Z,6.61
2017-01-31T06:29:08.021Z,6.53
2017-01-31T06:30:07.586Z,6.44
2017-01-31T06:31:07.176Z,6.47
2017-01-31T06:32:07.740Z,6.52
2017-01-31T06:33:07.283Z,6.51
2017-01-31T06:34:07.816Z,6.48
2017-01-31T06:35:49.971Z,6.52
2017-01-31T06:36:08.297Z,6.46
2017-01-31T06:37:07.841Z,6.53
2017-01-31T06:38:07.460Z,6.51
2017-01-31T06:39:08.171Z,6.54
2017-01-31T06:40:07.782Z,6.55
2017-01-31T06:41:07.338Z,6.51
2017-01-31T06:42:07.971Z,6.51
2017-01-31T06:43:07.504Z,6.52
2017-01-31T06:44:08.072Z,6.47
2017-01-31T06:45:07.744Z,6.51
2017-01-31T06:46:07.269Z,6.35
2017-01-31T06:47:07.815Z,6.41
2017-01-31T06:48:07.330Z,6.40
2017-01-31T06:49:07.913Z,6.34
2017-01-31T06:50:07.385Z,6.43
2017-01-31T06:51:08.021Z,6.34
2017-01-31T06:52:07.514Z,6.37
2017-01-31T06:53:08.071Z,6.41
2017-01-31T06:54:07.589Z,6.46
2017-01-31T06:55:07.115Z,6.46
2017-01-31T06:56:07.660Z,6.51
2017-01-31T06:57:07.111Z,6.40
2017-01-31T06:58:07.705Z,6.44
2017-01-31T06:59:07.300Z,6.50
2017-01-31T07:00:07.779Z,6.52
2017-01-31T07:01:07.360Z,6.50
2017-01-31T07:02:07.945Z,6.54
2017-01-31T07:03:07.535Z,6.59
2017-01-31T07:04:08.391Z,6.61
2017-01-31T07:05:07.906Z,6.60
2017-01-31T07:06:07.425Z,6.67
2017-01-31T07:07:07.921Z,6.60
2017-01-31T07:08:07.445Z,6.59
2017-01-31T07:09:07.944Z,6.60
2017-01-31T07:10:07.528Z,6.64
2017-01-31T07:11:08.257Z,6.64
2017-01-31T07:12:07.778Z,6.55
2017-01-31T07:13:07.308Z,6.57
2017-01-31T07:14:07.783Z,6.62
2017-01-31T07:15:07.378Z,6.58
2017-01-31T07:16:07.874Z,6.69
2017-01-31T07:17:07.693Z,6.64
2017-01-31T07:18:07.473Z,6.66
2017-01-31T07:19:07.981Z,6.68
2017-01-31T07:20:07.592Z,6.70
2017-01-31T07:21:07.709Z,6.62
2017-01-31T07:22:07.474Z,6.71
2017-01-31T07:23:08.023Z,6.65
2017-01-31T07:24:07.525Z,6.58
2017-01-31T07:25:08.276Z,6.65
2017-01-31T07:26:07.749Z,6.65
2017-01-31T07:27:07.249Z,6.65
2017-01-31T07:28:07.816Z,6.61
2017-01-31T07:29:07.425Z,6.60
2017-01-31T07:30:08.162Z,6.65
2017-01-31T07:31:07.855Z,6.54
2017-01-31T07:32:07.365Z,6.59
2017-01-31T07:33:07.915Z,6.60
2017-01-31T07:34:07.375Z,6.56
2017-01-31T07:35:08.212Z,6.66
2017-01-31T07:36:07.704Z,6.67
2017-01-31T07:37:07.209Z,6.63
2017-01-31T07:38:07.750Z,6.58
2017-01-31T07:39:07.335Z,6.57
2017-01-31T07:40:08.825Z,6.69
2017-01-31T07:41:07.467Z,6.48
2017-01-31T07:42:08.034Z,6.56
2017-01-31T07:43:07.641Z,6.52
2017-01-31T07:44:07.238Z,6.56
2017-01-31T07:45:07.753Z,6.61
2017-01-31T07:46:07.404Z,6.65
2017-01-31T07:47:07.999Z,6.66
2017-01-31T07:48:08.212Z,6.65
2017-01-31T07:49:07.695Z,6.57
2017-01-31T07:50:07.301Z,6.69
2017-01-31T07:51:07.936Z,6.64
2017-01-31T07:52:07.609Z,6.63
2017-01-31T07:53:07.113Z,6.65
2017-01-31T07:54:08.705Z,6.66
2017-01-31T07:55:07.208Z,6.63
2017-01-31T07:56:07.700Z,6.58
2017-01-31T07:57:07.998Z,6.61
2017-01-31T07:58:07.774Z,6.59
2017-01-31T07:59:07.460Z,6.63
2017-01-31T08:00:07.964Z,6.63
2017-01-31T08:01:07.513Z,6.62
2017-01-31T08:02:08.097Z,6.56
2017-01-31T08:03:07.705Z,6.49
2017-01-31T08:04:07.349Z,6.53
2017-01-31T08:05:07.855Z,6.56
2017-01-31T08:06:07.444Z,6.57
2017-01-31T08:07:08.011Z,6.54
2017-01-31T08:08:07.546Z,6.60
2017-01-31T08:09:07.977Z,6.55
2017-01-31T08:10:07.822Z,6.62
2017-01-31T08:11:07.466Z,6.62
2017-01-31T08:12:08.142Z,6.72
2017-01-31T08:13:07.722Z,6.67
2017-01-31T08:14:07.247Z,6.74
2017-01-31T08:15:07.755Z,6.82
2017-01-31T08:16:07.380Z,6.73
2017-01-31T08:17:08.083Z,6.72
2017-01-31T08:18:07.609Z,6.74
2017-01-31T08:19:07.281Z,6.70
2017-01-31T08:20:07.869Z,6.68
2017-01-31T08:21:07.455Z,6.67
2017-01-31T08:22:08.265Z,6.63
2017-01-31T08:23:07.620Z,6.62
2017-01-31T08:24:07.097Z,6.67
2017-01-31T08:25:07.716Z,6.69
2017-01-31T08:26:07.336Z,6.65
2017-01-31T08:27:07.862Z,6.69
2017-01-31T08:28:07.546Z,6.64
2017-01-31T08:29:08.180Z,6.62
2017-01-31T08:30:07.662Z,6.56
2017-01-31T08:31:07.210Z,6.54
2017-01-31T08:32:07.793Z,6.60
2017-01-31T08:33:07.494Z,6.63
2017-01-31T08:34:08.330Z,6.58
2017-01-31T08:35:07.808Z,6.62
2017-01-31T08:36:07.310Z,6.74
2017-01-31T08:37:07.948Z,6.74
2017-01-31T08:38:07.485Z,6.65
2017-01-31T08:39:08.034Z,6.66
2017-01-31T08:40:07.537Z,6.68
2017-01-31T08:41:08.123Z,6.76
2017-01-31T08:42:07.751Z,6.79
2017-01-31T08:43:07.298Z,6.78
2017-01-31T08:44:07.873Z,6.83
2017-01-31T08:45:08.855Z,6.83
2017-01-31T08:46:08.535Z,6.80
2017-01-31T08:47:07.187Z,6.85
2017-01-31T08:48:07.676Z,6.78
2017-01-31T08:49:07.268Z,6.78
2017-01-31T08:50:08.727Z,6.84
2017-01-31T08:51:07.316Z,6.74
2017-01-31T08:52:07.889Z,6.83
2017-01-31T08:53:07.426Z,6.83
2017-01-31T08:54:07.968Z,6.84
2017-01-31T08:55:07.585Z,6.81
2017-01-31T08:56:07.130Z,6.86
2017-01-31T08:57:08.601Z,6.88
2017-01-31T08:58:07.148Z,6.87
2017-01-31T08:59:07.893Z,6.87
2017-01-31T09:01:08.470Z,6.91
2017-01-31T09:02:07.985Z,6.94
2017-01-31T09:03:07.574Z,6.77
2017-01-31T09:04:07.283Z,6.87
2017-01-31T09:05:07.826Z,6.84
2017-01-31T09:06:07.408Z,6.81
2017-01-31T09:07:08.226Z,6.90
2017-01-31T09:08:08.694Z,6.87
2017-01-31T09:09:07.259Z,6.85
2017-01-31T09:10:08.097Z,6.84
2017-01-31T09:11:07.628Z,6.89
2017-01-31T09:12:07.404Z,6.85
2017-01-31T09:13:07.925Z,6.74
2017-01-31T09:14:07.443Z,6.78
2017-01-31T09:15:07.982Z,6.88
2017-01-31T09:16:08.446Z,6.82
2017-01-31T09:17:08.236Z,6.77
2017-01-31T09:18:07.911Z,6.83
2017-01-31T09:19:07.502Z,6.73
2017-01-31T09:20:07.980Z,6.74
2017-01-31T09:21:07.539Z,6.84
2017-01-31T09:22:08.120Z,6.86
2017-01-31T09:23:07.874Z,6.92
2017-01-31T09:24:07.492Z,6.85
2017-01-31T09:25:08.244Z,6.88
2017-01-31T09:26:07.793Z,6.96
2017-01-31T09:27:07.471Z,6.94
2017-01-31T09:28:08.011Z,6.96
2017-01-31T09:29:07.794Z,6.82
2017-01-31T09:30:07.298Z,6.91
2017-01-31T09:31:07.964Z,6.80
2017-01-31T09:32:07.497Z,6.89
2017-01-31T09:33:08.039Z,6.96
2017-01-31T09:34:07.595Z,6.94
2017-01-31T09:35:07.195Z,6.91
2017-01-31T09:36:07.960Z,6.87
2017-01-31T09:37:07.598Z,6.87
2017-01-31T09:38:07.251Z,6.79
2017-01-31T09:39:07.827Z,6.87
2017-01-31T09:40:07.343Z,6.76
2017-01-31T09:41:07.841Z,6.84
2017-01-31T09:42:07.339Z,6.85
2017-01-31T09:43:07.898Z,6.91
2017-01-31T09:44:07.437Z,6.97
2017-01-31T09:45:07.977Z,6.94
2017-01-31T09:46:07.875Z,6.99
2017-01-31T09:47:07.565Z,7.00
2017-01-31T09:48:08.089Z,6.97
2017-01-31T09:49:07.689Z,7.06
2017-01-31T09:50:07.384Z,7.07
2017-01-31T09:51:07.992Z,7.08
2017-01-31T09:52:07.488Z,6.93
2017-01-31T09:53:08.016Z,7.09
2017-01-31T09:54:07.621Z,7.07
2017-01-31T09:55:07.088Z,7.13
2017-01-31T09:56:07.895Z,6.91
2017-01-31T09:57:07.431Z,6.98
2017-01-31T09:58:07.992Z,6.96
2017-01-31T09:59:07.658Z,6.88
2017-01-31T10:00:07.172Z,6.96
2017-01-31T10:01:07.727Z,6.85
2017-01-31T10:02:07.245Z,6.85
2017-01-31T10:03:07.767Z,6.89
2017-01-31T10:04:07.611Z,6.96
2017-01-31T10:05:07.371Z,7.01
2017-01-31T10:06:07.870Z,6.95
2017-01-31T10:07:07.416Z,6.97
2017-01-31T10:08:07.944Z,6.84
2017-01-31T10:09:07.521Z,6.94
2017-01-31T10:10:08.076Z,7.00
2017-01-31T10:11:07.714Z,7.00
2017-01-31T10:12:07.380Z,6.97
2017-01-31T10:13:07.901Z,7.10
2017-01-31T10:14:07.459Z,7.08
2017-01-31T10:15:07.995Z,6.97
2017-01-31T10:16:07.592Z,7.01
2017-01-31T10:17:07.170Z,7.05
2017-01-31T10:18:07.852Z,7.10
2017-01-31T10:19:07.463Z,7.09
2017-01-31T10:20:08.347Z,7.18
2017-01-31T10:21:07.900Z,7.00
2017-01-31T10:22:07.498Z,7.01
2017-01-31T10:23:08.002Z,7.08
2017-01-31T10:24:07.719Z,7.10
2017-01-31T10:25:07.210Z,7.03
2017-01-31T10:26:07.731Z,7.10
2017-01-31T10:27:07.305Z,7.11
2017-01-31T10:28:07.845Z,7.03
2017-01-31T10:29:07.507Z,6.88
2017-01-31T10:30:08.381Z,6.90
2017-01-31T10:31:07.333Z,7.00
2017-01-31T10:32:07.847Z,6.88
2017-01-31T10:33:07.374Z,6.93
2017-01-31T10:34:07.908Z,7.00
2017-01-31T10:35:07.385Z,6.99
2017-01-31T10:36:08.148Z,6.97
2017-01-31T10:37:07.718Z,7.02
2017-01-31T10:38:07.185Z,6.97
2017-01-31T10:39:07.831Z,6.96
2017-01-31T10:40:07.512Z,6.92
2017-01-31T10:41:08.033Z,6.84
2017-01-31T10:42:07.503Z,6.92
2017-01-31T10:43:08.000Z,6.99
2017-01-31T10:44:07.456Z,6.92
2017-01-31T10:45:08.030Z,6.89
2017-01-31T10:46:07.710Z,6.95
2017-01-31T10:47:07.175Z,6.94
2017-01-31T10:48:07.673Z,6.95
2017-01-31T10:49:07.433Z,7.04
2017-01-31T10:50:07.981Z,6.93
2017-01-31T10:51:07.564Z,6.97
2017-01-31T10:52:08.014Z,6.92
2017-01-31T10:53:07.495Z,7.00
2017-01-31T10:54:08.017Z,7.10
2017-01-31T10:55:07.510Z,7.06
2017-01-31T10:56:07.967Z,7.01
2017-01-31T10:57:07.652Z,6.98
2017-01-31T10:58:07.177Z,6.87
2017-01-31T10:59:07.799Z,7.03
2017-01-31T11:00:07.349Z,7.09
2017-01-31T11:01:08.044Z,6.93
2017-01-31T11:02:07.545Z,6.99
2017-01-31T11:03:08.084Z,6.93
2017-01-31T11:04:07.609Z,6.88
2017-01-31T11:05:07.376Z,7.01
2017-01-31T11:06:07.848Z,7.08
2017-01-31T11:07:07.514Z,7.16
2017-01-31T11:08:07.981Z,7.08
2017-01-31T11:09:07.519Z,7.14
2017-01-31T11:10:08.265Z,6.98
2017-01-31T11:11:08.100Z,7.10
2017-01-31T11:12:07.585Z,6.91
2017-01-31T11:13:07.140Z,7.00
2017-01-31T11:14:07.665Z,6.99
2017-01-31T11:15:07.312Z,6.96
2017-01-31T11:16:07.909Z,7.04
2017-01-31T11:17:07.780Z,6.96
2017-01-31T11:18:07.272Z,6.93
2017-01-31T11:19:07.929Z,6.98
2017-01-31T11:20:07.636Z,6.99
2017-01-31T11:21:07.489Z,6.93
2017-01-31T11:22:08.083Z,6.97
2017-01-31T11:23:16.479Z,7.02
2017-01-31T11:24:07.365Z,6.99
2017-01-31T11:25:07.938Z,7.03
2017-01-31T11:26:07.602Z,6.93
2017-01-31T11:27:07.064Z,6.86
2017-01-31T11:28:07.692Z,6.98
2017-01-31T11:29:07.287Z,7.03
2017-01-31T11:30:07.836Z,7.00
2017-01-31T11:31:07.492Z,6.97
2017-01-31T11:32:08.101Z,6.90
2017-01-31T11:33:07.746Z,6.98
2017-01-31T11:34:07.554Z,7.04
2017-01-31T11:35:08.070Z,6.95
2017-01-31T11:36:07.610Z,6.95
2017-01-31T11:37:07.383Z,6.92
2017-01-31T11:38:07.899Z,7.03
2017-01-31T11:39:07.521Z,7.19
2017-01-31T11:40:08.371Z,7.11
2017-01-31T11:41:08.026Z,7.21
2017-01-31T11:42:07.566Z,7.21
2017-01-31T11:43:07.170Z,7.10
2017-01-31T11:44:07.853Z,7.26
2017-01-31T11:45:07.446Z,7.25
2017-01-31T11:46:08.010Z,7.28
2017-01-31T11:47:07.524Z,7.30
2017-01-31T11:48:08.062Z,7.30
2017-01-31T11:49:07.715Z,7.18
2017-01-31T11:50:07.454Z,7.05
2017-01-31T11:51:07.982Z,7.18
2017-01-31T11:52:07.555Z,7.23
2017-01-31T11:53:07.236Z,7.22
2017-01-31T11:54:07.781Z,7.25
2017-01-31T11:55:07.301Z,7.20
2017-01-31T11:56:07.811Z,7.21
2017-01-31T11:57:07.321Z,7.17
2017-01-31T11:58:08.026Z,7.14
2017-01-31T11:59:08.036Z,7.23
2017-01-31T12:00:07.568Z,7.18
2017-01-31T12:01:08.329Z,7.23
2017-01-31T12:02:07.903Z,7.10
2017-01-31T12:03:07.453Z,7.10
2017-01-31T12:04:08.273Z,7.15
2017-01-31T12:05:07.881Z,7.15
2017-01-31T12:06:07.378Z,7.01
2017-01-31T12:07:08.166Z,7.07
2017-01-31T12:08:07.717Z,6.98
2017-01-31T12:09:07.196Z,7.00
2017-01-31T12:10:07.765Z,6.93
2017-01-31T12:11:07.450Z,6.99
2017-01-31T12:12:08.174Z,7.03
2017-01-31T12:13:07.745Z,7.18
2017-01-31T12:14:07.343Z,7.22
2017-01-31T12:15:08.004Z,7.29
2017-01-31T12:16:07.598Z,7.20
2017-01-31T12:17:07.296Z,7.22
2017-01-31T12:18:07.962Z,7.01
2017-01-31T12:19:07.478Z,6.98
2017-01-31T12:20:08.111Z,7.13
2017-01-31T12:21:07.737Z,7.02
2017-01-31T12:22:07.289Z,7.11
2017-01-31T12:23:07.954Z,7.26
2017-01-31T12:24:07.486Z,7.41
2017-01-31T12:25:07.939Z,7.30
2017-01-31T12:26:07.231Z,7.39
2017-01-31T12:27:07.732Z,7.36
2017-01-31T12:28:07.256Z,7.28
2017-01-31T12:29:07.912Z,7.35
2017-01-31T12:30:07.473Z,7.39
2017-01-31T12:31:08.200Z,7.39
2017-01-31T12:32:07.755Z,7.31
2017-01-31T12:33:07.274Z,7.22
2017-01-31T12:34:07.803Z,7.20
2017-01-31T12:35:07.374Z,7.23
2017-01-31T12:36:07.961Z,7.13
2017-01-31T12:37:07.639Z,7.22
2017-01-31T12:38:07.180Z,7.20
2017-01-31T12:39:07.661Z,7.23
2017-01-31T12:40:07.352Z,7.24
2017-01-31T12:41:07.884Z,6.96
2017-01-31T12:42:08.174Z,6.87
2017-01-31T12:43:07.777Z,6.95
2017-01-31T12:44:07.322Z,6.94
2017-01-31T12:45:07.840Z,7.14
2017-01-31T12:46:07.331Z,7.01
2017-01-31T12:47:08.170Z,6.96
2017-01-31T12:48:07.639Z,7.05
2017-01-31T12:49:07.255Z,7.07
2017-01-31T12:50:08.015Z,7.08
2017-01-31T12:51:07.601Z,6.99
2017-01-31T12:52:07.117Z,7.10
2017-01-31T12:53:07.488Z,7.10
2017-01-31T12:54:07.999Z,7.06
2017-01-31T12:55:07.482Z,7.00
2017-01-31T12:56:07.953Z,6.99
2017-01-31T12:57:07.603Z,6.97
2017-01-31T12:58:07.181Z,6.96
2017-01-31T12:59:07.910Z,6.96
2017-01-31T13:00:07.446Z,7.01
2017-01-31T13:01:08.127Z,6.98
2017-01-31T13:02:08.559Z,6.95
2017-01-31T13:03:08.053Z,6.95
2017-01-31T13:04:07.566Z,6.95
2017-01-31T13:05:08.221Z,6.96
2017-01-31T13:06:07.787Z,6.96
2017-01-31T13:07:07.282Z,6.97
2017-01-31T13:08:07.838Z,6.97
2017-01-31T13:09:07.382Z,7.07
2017-01-31T13:10:07.912Z,7.04
2017-01-31T13:11:07.583Z,7.04
2017-01-31T13:12:07.489Z,7.01
2017-01-31T13:13:08.068Z,6.96
2017-01-31T13:14:07.610Z,6.93
2017-01-31T13:15:07.258Z,6.89
2017-01-31T13:16:07.839Z,6.95
2017-01-31T13:17:07.532Z,6.98
2017-01-31T13:18:08.136Z,7.02
2017-01-31T13:19:07.665Z,6.99